N291DB KSNA-KSBA
Flight info
| Callsign | N291DB |
|---|---|
| Flight time | 0h 42m |
| Altitude | 6000 |
| Route | SLI V23 LAX V299 VTU KWANG |
| Aircraft | BE60/L-SDFGRY/C |
Departure
| Time | 2026-05-08 18:05 |
|---|---|
| Airport | John Wayne Orange County International Airport (KSNA) |
Arrival
| Time | 2026-05-08 18:48 |
|---|---|
| Airport | Santa Barbara Municipal Airport (KSBA) |
| Time | Latitude | Longitude | Altitude | Speed | Heading |
|---|---|---|---|---|---|
| 2026-05-08 17:50 | 33.67414 | -117.87214 | 51 ft | 0 kts | 298° |
| 2026-05-08 17:57 | 33.67414 | -117.87220 | 51 ft | 2 kts | 255° |
| 2026-05-08 17:57 | 33.67399 | -117.87201 | 51 ft | 8 kts | 100° |
| 2026-05-08 17:58 | 33.67425 | -117.87125 | 51 ft | 14 kts | 29° |
| 2026-05-08 17:58 | 33.67527 | -117.87060 | 50 ft | 19 kts | 28° |
| 2026-05-08 17:58 | 33.67658 | -117.86977 | 50 ft | 23 kts | 28° |
| 2026-05-08 17:58 | 33.67806 | -117.86884 | 49 ft | 24 kts | 27° |
| 2026-05-08 17:59 | 33.67952 | -117.86802 | 49 ft | 21 kts | 14° |
| 2026-05-08 17:59 | 33.68082 | -117.86727 | 49 ft | 18 kts | 27° |
| 2026-05-08 17:59 | 33.68145 | -117.86689 | 49 ft | 7 kts | 24° |
| 2026-05-08 17:59 | 33.68192 | -117.86630 | 49 ft | 13 kts | 82° |
| 2026-05-08 18:00 | 33.68191 | -117.86603 | 49 ft | 0 kts | 103° |
| 2026-05-08 18:04 | 33.68180 | -117.86570 | 49 ft | 11 kts | 114° |
| 2026-05-08 18:04 | 33.68135 | -117.86528 | 49 ft | 0 kts | 207° |
| 2026-05-08 18:04 | 33.67905 | -117.86674 | 49 ft | 76 kts | 207° |
| 2026-05-08 18:05 | 33.67286 | -117.87072 | 71 ft | 118 kts | 208° |
| 2026-05-08 18:05 | 33.66546 | -117.87576 | 397 ft | 126 kts | 211° |
| 2026-05-08 18:05 | 33.65699 | -117.88134 | 493 ft | 151 kts | 207° |
| 2026-05-08 18:05 | 33.64726 | -117.88740 | 706 ft | 163 kts | 207° |
| 2026-05-08 18:06 | 33.63699 | -117.89380 | 1014 ft | 167 kts | 207° |
| 2026-05-08 18:06 | 33.62674 | -117.90015 | 1431 ft | 165 kts | 207° |
| 2026-05-08 18:06 | 33.61655 | -117.90647 | 1823 ft | 165 kts | 207° |
| 2026-05-08 18:06 | 33.60633 | -117.91284 | 2209 ft | 166 kts | 207° |
| 2026-05-08 18:07 | 33.59599 | -117.91921 | 2572 ft | 168 kts | 207° |
| 2026-05-08 18:07 | 33.58549 | -117.92554 | 2927 ft | 170 kts | 208° |
| 2026-05-08 18:07 | 33.57495 | -117.93203 | 3278 ft | 170 kts | 219° |
| 2026-05-08 18:07 | 33.56892 | -117.94350 | 3608 ft | 164 kts | 264° |
| 2026-05-08 18:08 | 33.57170 | -117.95619 | 3960 ft | 160 kts | 308° |
| 2026-05-08 18:08 | 33.58081 | -117.96358 | 4327 ft | 161 kts | 337° |
| 2026-05-08 18:08 | 33.59124 | -117.96801 | 4693 ft | 160 kts | 337° |
| 2026-05-08 18:08 | 33.60173 | -117.97265 | 5066 ft | 160 kts | 336° |
| 2026-05-08 18:09 | 33.60863 | -117.97574 | 5295 ft | 159 kts | 336° |
| 2026-05-08 18:09 | 33.61903 | -117.98043 | 5638 ft | 159 kts | 336° |
| 2026-05-08 18:09 | 33.62944 | -117.98512 | 5971 ft | 161 kts | 335° |
| 2026-05-08 18:09 | 33.64051 | -117.99015 | 6005 ft | 179 kts | 336° |
| 2026-05-08 18:10 | 33.65264 | -117.99562 | 6009 ft | 192 kts | 336° |
| 2026-05-08 18:10 | 33.66963 | -118.00327 | 6009 ft | 203 kts | 336° |
| 2026-05-08 18:10 | 33.67864 | -118.00734 | 6006 ft | 206 kts | 336° |
| 2026-05-08 18:10 | 33.69223 | -118.01347 | 5975 ft | 210 kts | 336° |
| 2026-05-08 18:11 | 33.70600 | -118.01970 | 5972 ft | 212 kts | 336° |
| 2026-05-08 18:11 | 33.71972 | -118.02591 | 5972 ft | 213 kts | 336° |
| 2026-05-08 18:11 | 33.73365 | -118.03221 | 5969 ft | 214 kts | 336° |
| 2026-05-08 18:11 | 33.74762 | -118.03854 | 5971 ft | 215 kts | 336° |
| 2026-05-08 18:12 | 33.76156 | -118.04486 | 5969 ft | 213 kts | 336° |
| 2026-05-08 18:12 | 33.77461 | -118.05266 | 5970 ft | 208 kts | 321° |
| 2026-05-08 18:12 | 33.78437 | -118.06522 | 5968 ft | 205 kts | 302° |
| 2026-05-08 18:12 | 33.79005 | -118.08081 | 5972 ft | 204 kts | 287° |
| 2026-05-08 18:13 | 33.79405 | -118.09700 | 5971 ft | 203 kts | 288° |
| 2026-05-08 18:13 | 33.79823 | -118.11323 | 5997 ft | 203 kts | 288° |
| 2026-05-08 18:13 | 33.80236 | -118.12943 | 5996 ft | 203 kts | 287° |
| 2026-05-08 18:13 | 33.80649 | -118.14565 | 5999 ft | 203 kts | 287° |
| 2026-05-08 18:14 | 33.81062 | -118.16189 | 5996 ft | 202 kts | 287° |
| 2026-05-08 18:14 | 33.81473 | -118.17807 | 5998 ft | 202 kts | 287° |
| 2026-05-08 18:14 | 33.81884 | -118.19425 | 5998 ft | 202 kts | 287° |
| 2026-05-08 18:14 | 33.82287 | -118.21015 | 5999 ft | 203 kts | 287° |
| 2026-05-08 18:15 | 33.82695 | -118.22621 | 5999 ft | 203 kts | 287° |
| 2026-05-08 18:15 | 33.83107 | -118.24247 | 5998 ft | 203 kts | 287° |
| 2026-05-08 18:15 | 33.83519 | -118.25872 | 6005 ft | 203 kts | 287° |
| 2026-05-08 18:15 | 33.83930 | -118.27496 | 6006 ft | 203 kts | 287° |
| 2026-05-08 18:16 | 33.84341 | -118.29119 | 6006 ft | 203 kts | 287° |
| 2026-05-08 18:16 | 33.84757 | -118.30766 | 6007 ft | 203 kts | 287° |
| 2026-05-08 18:16 | 33.85164 | -118.32374 | 6008 ft | 203 kts | 287° |
| 2026-05-08 18:16 | 33.85575 | -118.33999 | 6007 ft | 203 kts | 288° |
| 2026-05-08 18:17 | 33.86193 | -118.35511 | 6006 ft | 202 kts | 308° |
| 2026-05-08 18:17 | 33.87207 | -118.36689 | 6011 ft | 203 kts | 317° |
| 2026-05-08 18:17 | 33.88271 | -118.37811 | 6004 ft | 203 kts | 317° |
| 2026-05-08 18:17 | 33.89327 | -118.38941 | 6008 ft | 203 kts | 317° |
| 2026-05-08 18:18 | 33.90388 | -118.40074 | 6008 ft | 203 kts | 317° |
| 2026-05-08 18:18 | 33.91448 | -118.41204 | 6009 ft | 204 kts | 317° |
| 2026-05-08 18:18 | 33.92509 | -118.42338 | 6008 ft | 204 kts | 317° |
| 2026-05-08 18:18 | 33.93424 | -118.43623 | 6011 ft | 203 kts | 298° |
| 2026-05-08 18:19 | 33.93952 | -118.45184 | 6007 ft | 203 kts | 290° |
| 2026-05-08 18:19 | 33.94455 | -118.46773 | 6006 ft | 203 kts | 291° |
| 2026-05-08 18:19 | 33.94967 | -118.48360 | 6008 ft | 203 kts | 291° |
| 2026-05-08 18:19 | 33.95475 | -118.49950 | 6007 ft | 203 kts | 291° |
| 2026-05-08 18:20 | 33.95982 | -118.51542 | 6009 ft | 204 kts | 291° |
| 2026-05-08 18:20 | 33.96491 | -118.53136 | 6008 ft | 204 kts | 291° |
| 2026-05-08 18:20 | 33.97000 | -118.54734 | 6007 ft | 204 kts | 291° |
| 2026-05-08 18:20 | 33.97510 | -118.56334 | 6007 ft | 205 kts | 291° |
| 2026-05-08 18:21 | 33.98021 | -118.57939 | 6006 ft | 205 kts | 291° |
| 2026-05-08 18:21 | 33.98530 | -118.59538 | 6002 ft | 205 kts | 291° |
| 2026-05-08 18:21 | 33.99041 | -118.61143 | 6003 ft | 204 kts | 291° |
| 2026-05-08 18:21 | 33.99550 | -118.62743 | 6003 ft | 204 kts | 291° |
| 2026-05-08 18:22 | 34.00059 | -118.64346 | 6002 ft | 205 kts | 291° |
| 2026-05-08 18:22 | 34.00568 | -118.65946 | 6001 ft | 205 kts | 291° |
| 2026-05-08 18:22 | 34.01078 | -118.67553 | 6000 ft | 205 kts | 291° |
| 2026-05-08 18:22 | 34.01579 | -118.69133 | 5999 ft | 205 kts | 291° |
| 2026-05-08 18:23 | 34.02088 | -118.70739 | 5996 ft | 205 kts | 291° |
| 2026-05-08 18:23 | 34.02596 | -118.72342 | 5997 ft | 204 kts | 291° |
| 2026-05-08 18:23 | 34.03104 | -118.73943 | 5995 ft | 204 kts | 291° |
| 2026-05-08 18:23 | 34.03612 | -118.75551 | 5994 ft | 204 kts | 291° |
| 2026-05-08 18:24 | 34.04086 | -118.77157 | 5988 ft | 203 kts | 288° |
| 2026-05-08 18:24 | 34.04507 | -118.78764 | 5988 ft | 203 kts | 288° |
| 2026-05-08 18:24 | 34.04955 | -118.80402 | 5988 ft | 202 kts | 289° |
| 2026-05-08 18:24 | 34.05367 | -118.82013 | 5996 ft | 204 kts | 285° |
| 2026-05-08 18:25 | 34.05714 | -118.83670 | 6002 ft | 204 kts | 285° |
| 2026-05-08 18:25 | 34.06073 | -118.85338 | 5986 ft | 205 kts | 285° |
| 2026-05-08 18:25 | 34.06435 | -118.86978 | 6003 ft | 202 kts | 286° |
| 2026-05-08 18:25 | 34.06808 | -118.88620 | 6001 ft | 203 kts | 286° |
| 2026-05-08 18:26 | 34.07176 | -118.90265 | 6004 ft | 203 kts | 285° |
| 2026-05-08 18:26 | 34.07535 | -118.91889 | 6013 ft | 204 kts | 285° |
| 2026-05-08 18:26 | 34.07903 | -118.93549 | 6006 ft | 204 kts | 286° |
| 2026-05-08 18:26 | 34.08271 | -118.95204 | 6008 ft | 205 kts | 286° |
| 2026-05-08 18:27 | 34.08638 | -118.96864 | 6015 ft | 204 kts | 285° |
| 2026-05-08 18:27 | 34.08887 | -118.97962 | 6012 ft | 205 kts | 287° |
| 2026-05-08 18:27 | 34.09561 | -119.00126 | 6013 ft | 206 kts | 292° |
| 2026-05-08 18:27 | 34.10075 | -119.01719 | 6016 ft | 206 kts | 291° |
| 2026-05-08 18:28 | 34.10571 | -119.03348 | 6017 ft | 206 kts | 291° |
| 2026-05-08 18:28 | 34.11066 | -119.04984 | 6012 ft | 206 kts | 291° |
| 2026-05-08 18:28 | 34.11563 | -119.06614 | 6017 ft | 206 kts | 291° |
| 2026-05-08 18:28 | 34.12056 | -119.08223 | 6016 ft | 208 kts | 291° |
| 2026-05-08 18:29 | 34.12555 | -119.09860 | 6014 ft | 208 kts | 291° |
| 2026-05-08 18:29 | 34.13055 | -119.11500 | 6016 ft | 208 kts | 291° |
| 2026-05-08 18:29 | 34.13553 | -119.13135 | 6014 ft | 208 kts | 291° |
| 2026-05-08 18:29 | 34.14055 | -119.14786 | 6017 ft | 208 kts | 291° |
| 2026-05-08 18:30 | 34.14555 | -119.16430 | 6014 ft | 208 kts | 291° |
| 2026-05-08 18:30 | 34.15054 | -119.18069 | 6005 ft | 208 kts | 291° |
| 2026-05-08 18:30 | 34.15552 | -119.19706 | 6007 ft | 208 kts | 291° |
| 2026-05-08 18:30 | 34.16049 | -119.21344 | 6006 ft | 208 kts | 291° |
| 2026-05-08 18:31 | 34.16546 | -119.22981 | 6007 ft | 208 kts | 291° |
| 2026-05-08 18:31 | 34.17044 | -119.24621 | 6005 ft | 207 kts | 291° |
| 2026-05-08 18:31 | 34.17540 | -119.26259 | 6002 ft | 207 kts | 291° |
| 2026-05-08 18:31 | 34.18037 | -119.27898 | 6002 ft | 207 kts | 291° |
| 2026-05-08 18:32 | 34.18532 | -119.29530 | 6006 ft | 207 kts | 291° |
| 2026-05-08 18:32 | 34.19019 | -119.31141 | 6005 ft | 207 kts | 291° |
| 2026-05-08 18:32 | 34.19516 | -119.32782 | 6004 ft | 207 kts | 291° |
| 2026-05-08 18:32 | 34.20012 | -119.34422 | 6004 ft | 207 kts | 291° |
| 2026-05-08 18:33 | 34.20507 | -119.36060 | 6004 ft | 208 kts | 291° |
| 2026-05-08 18:33 | 34.21002 | -119.37699 | 6003 ft | 208 kts | 291° |
| 2026-05-08 18:33 | 34.21498 | -119.39340 | 6003 ft | 207 kts | 291° |
| 2026-05-08 18:33 | 34.21993 | -119.40981 | 6000 ft | 207 kts | 291° |
| 2026-05-08 18:34 | 34.22487 | -119.42621 | 6002 ft | 207 kts | 291° |
| 2026-05-08 18:34 | 34.22974 | -119.44236 | 6002 ft | 207 kts | 291° |
| 2026-05-08 18:34 | 34.23468 | -119.45874 | 6000 ft | 208 kts | 291° |
| 2026-05-08 18:34 | 34.23963 | -119.47518 | 5998 ft | 208 kts | 291° |
| 2026-05-08 18:35 | 34.24457 | -119.49162 | 5998 ft | 208 kts | 291° |
| 2026-05-08 18:35 | 34.24953 | -119.50809 | 5998 ft | 208 kts | 291° |
| 2026-05-08 18:35 | 34.25448 | -119.52458 | 5995 ft | 208 kts | 291° |
| 2026-05-08 18:35 | 34.25942 | -119.54102 | 5995 ft | 208 kts | 291° |
| 2026-05-08 18:36 | 34.26437 | -119.55748 | 6000 ft | 208 kts | 291° |
| 2026-05-08 18:36 | 34.26930 | -119.57393 | 6001 ft | 208 kts | 291° |
| 2026-05-08 18:36 | 34.27425 | -119.59043 | 6003 ft | 208 kts | 291° |
| 2026-05-08 18:36 | 34.27912 | -119.60668 | 6002 ft | 209 kts | 292° |
| 2026-05-08 18:37 | 34.28406 | -119.62318 | 6003 ft | 209 kts | 292° |
| 2026-05-08 18:37 | 34.28902 | -119.63974 | 6003 ft | 209 kts | 292° |
| 2026-05-08 18:37 | 34.29396 | -119.65626 | 6004 ft | 209 kts | 292° |
| 2026-05-08 18:37 | 34.29891 | -119.67281 | 6006 ft | 209 kts | 292° |
| 2026-05-08 18:38 | 34.30385 | -119.68933 | 6008 ft | 209 kts | 292° |
| 2026-05-08 18:38 | 34.30880 | -119.70591 | 6007 ft | 208 kts | 292° |
| 2026-05-08 18:38 | 34.31366 | -119.72216 | 6004 ft | 208 kts | 292° |
| 2026-05-08 18:38 | 34.31857 | -119.73864 | 6004 ft | 208 kts | 292° |
| 2026-05-08 18:39 | 34.32349 | -119.75512 | 6003 ft | 208 kts | 292° |
| 2026-05-08 18:39 | 34.32841 | -119.77165 | 6005 ft | 208 kts | 292° |
| 2026-05-08 18:39 | 34.33331 | -119.78809 | 6005 ft | 208 kts | 292° |
| 2026-05-08 18:39 | 34.33823 | -119.80463 | 6005 ft | 209 kts | 292° |
| 2026-05-08 18:40 | 34.34309 | -119.82094 | 6005 ft | 209 kts | 292° |
| 2026-05-08 18:40 | 34.34803 | -119.83756 | 6006 ft | 209 kts | 292° |
| 2026-05-08 18:40 | 34.35296 | -119.85414 | 6004 ft | 209 kts | 292° |
| 2026-05-08 18:40 | 34.35789 | -119.87076 | 6006 ft | 209 kts | 292° |
| 2026-05-08 18:41 | 34.36282 | -119.88734 | 6005 ft | 209 kts | 292° |
| 2026-05-08 18:41 | 34.36774 | -119.90396 | 6004 ft | 209 kts | 292° |
| 2026-05-08 18:41 | 34.37260 | -119.92034 | 6003 ft | 209 kts | 292° |
| 2026-05-08 18:41 | 34.37750 | -119.93686 | 6004 ft | 209 kts | 292° |
| 2026-05-08 18:42 | 34.38241 | -119.95342 | 6001 ft | 208 kts | 292° |
| 2026-05-08 18:42 | 34.38724 | -119.96977 | 5736 ft | 202 kts | 292° |
| 2026-05-08 18:42 | 34.39193 | -119.98567 | 5354 ft | 198 kts | 292° |
| 2026-05-08 18:42 | 34.39654 | -120.00127 | 4983 ft | 195 kts | 292° |
| 2026-05-08 18:43 | 34.40110 | -120.01667 | 4605 ft | 193 kts | 292° |
| 2026-05-08 18:43 | 34.40656 | -120.03106 | 4170 ft | 190 kts | 311° |
| 2026-05-08 18:43 | 34.41756 | -120.03944 | 3694 ft | 190 kts | 347° |
| 2026-05-08 18:43 | 34.43060 | -120.03758 | 3240 ft | 194 kts | 23° |
| 2026-05-08 18:44 | 34.44022 | -120.02613 | 2786 ft | 201 kts | 60° |
| 2026-05-08 18:44 | 34.44229 | -120.00959 | 2454 ft | 203 kts | 99° |
| 2026-05-08 18:44 | 34.43643 | -119.99442 | 2230 ft | 198 kts | 123° |
| 2026-05-08 18:44 | 34.42948 | -119.98031 | 1968 ft | 192 kts | 121° |
| 2026-05-08 18:45 | 34.42562 | -119.96534 | 1807 ft | 182 kts | 92° |
| 2026-05-08 18:45 | 34.42565 | -119.95043 | 1597 ft | 177 kts | 90° |
| 2026-05-08 18:45 | 34.42576 | -119.93670 | 1370 ft | 148 kts | 90° |
| 2026-05-08 18:45 | 34.42604 | -119.92507 | 1184 ft | 130 kts | 90° |
| 2026-05-08 18:46 | 34.42629 | -119.91439 | 1014 ft | 125 kts | 90° |
| 2026-05-08 18:46 | 34.42647 | -119.90401 | 842 ft | 123 kts | 90° |
| 2026-05-08 18:46 | 34.42671 | -119.89371 | 685 ft | 122 kts | 90° |
| 2026-05-08 18:46 | 34.42690 | -119.88361 | 532 ft | 120 kts | 90° |
| 2026-05-08 18:47 | 34.42714 | -119.87350 | 367 ft | 120 kts | 91° |
| 2026-05-08 18:47 | 34.42733 | -119.86339 | 220 ft | 121 kts | 91° |
| 2026-05-08 18:47 | 34.42752 | -119.85341 | 45 ft | 118 kts | 90° |
| 2026-05-08 18:47 | 34.42775 | -119.84468 | 12 ft | 87 kts | 92° |
| 2026-05-08 18:48 | 34.42781 | -119.83972 | 14 ft | 28 kts | 91° |
| 2026-05-08 18:48 | 34.42752 | -119.83864 | 14 ft | 13 kts | 150° |
| 2026-05-08 18:48 | 34.42650 | -119.83829 | 13 ft | 17 kts | 166° |
| 2026-05-08 18:48 | 34.42531 | -119.83792 | 13 ft | 19 kts | 166° |
| 2026-05-08 18:49 | 34.42443 | -119.83765 | 13 ft | 19 kts | 165° |
| 2026-05-08 18:49 | 34.42324 | -119.83735 | 13 ft | 15 kts | 177° |
| 2026-05-08 18:49 | 34.42269 | -119.83679 | 12 ft | 10 kts | 89° |
| 2026-05-08 18:49 | 34.42301 | -119.83579 | 12 ft | 8 kts | 53° |
| 2026-05-08 18:50 | 34.42325 | -119.83574 | 12 ft | 0 kts | 295° |